Berkley, Massachusetts
Current Conditions -  °F | °C
As of 8:22 PM on Tuesday 27 Jan 2015 (Local Time) from KTAN Reporting Station
Haze Haze  
Wind Chill:   Ceiling: 3100
Heat Index: 17°   Visibility: 5mi
Dew Point:   Wind: 15mph
Humidity: 71%   Direction: 340°NNW
Pressure: 29.58"   Gusts: 24mph
Location:  41.85°N, 71.08°W
Report Text: KTAN 280122Z AUTO 34013G21KT 5SM HZ FEW024 OVC031 M08/M13 A2958 RMK AO2 T10831128 PWINO FZRANO $
Loading
Personal Weather Stations






























Interactive Weather Map New forecast layout! Learn more

10-Day Weather Forecast

Advertisements
Track Severe Weather on mobile